Crystal Springs, North Dakota
Current Conditions -  °F | °C
As of 12:56 AM on Friday 28 Nov 2014 (Local Time) from KJMS Reporting Station
Haze Haze  
Wind Chill: -9°   Ceiling: 2900
Heat Index:   Visibility: 6mi
Dew Point:   Wind: 13mph
Humidity: 84%   Direction: 130°SE
Pressure: 29.95"   Gusts: NA
Location:  46.8928°N, 99.3208°W
Report Text: KJMS 280656Z AUTO 13011KT 6SM BR BKN029 OVC033 M14/M16 A2995 RMK AO2 SLP179 T11391161
Loading
Personal Weather Stations






























Interactive Weather Map New forecast layout! Learn more

10-Day Weather Forecast

Advertisements
Track Severe Weather on mobile